sensor_id;sensor_type;location;lat;lon;timestamp;temperature;humidity
30304;DHT22;17112;48.636;10.152;2023-03-31T00:00:43;9.30;65.20
30304;DHT22;17112;48.636;10.152;2023-03-31T00:03:08;9.30;65.20
30304;DHT22;17112;48.636;10.152;2023-03-31T00:05:47;9.30;66.00
30304;DHT22;17112;48.636;10.152;2023-03-31T00:08:13;9.20;65.30
30304;DHT22;17112;48.636;10.152;2023-03-31T00:10:44;9.20;65.40
30304;DHT22;17112;48.636;10.152;2023-03-31T00:13:11;9.10;65.60
30304;DHT22;17112;48.636;10.152;2023-03-31T00:15:37;9.10;65.40
30304;DHT22;17112;48.636;10.152;2023-03-31T00:18:02;9.10;65.70
30304;DHT22;17112;48.636;10.152;2023-03-31T00:20:28;9.00;65.90
30304;DHT22;17112;48.636;10.152;2023-03-31T00:22:54;9.00;66.00
30304;DHT22;17112;48.636;10.152;2023-03-31T00:25:22;9.00;66.10
30304;DHT22;17112;48.636;10.152;2023-03-31T00:27:48;8.90;66.10
30304;DHT22;17112;48.636;10.152;2023-03-31T00:30:17;8.90;66.30
30304;DHT22;17112;48.636;10.152;2023-03-31T00:32:43;8.90;66.30
30304;DHT22;17112;48.636;10.152;2023-03-31T00:35:09;8.90;66.30
30304;DHT22;17112;48.636;10.152;2023-03-31T00:37:35;8.90;66.40
30304;DHT22;17112;48.636;10.152;2023-03-31T00:40:01;8.90;66.60
30304;DHT22;17112;48.636;10.152;2023-03-31T00:42:27;8.90;66.60
30304;DHT22;17112;48.636;10.152;2023-03-31T00:48:02;8.90;67.60
30304;DHT22;17112;48.636;10.152;2023-03-31T00:50:32;8.90;67.50
30304;DHT22;17112;48.636;10.152;2023-03-31T00:53:11;8.90;66.80
30304;DHT22;17112;48.636;10.152;2023-03-31T00:55:42;8.90;67.30
30304;DHT22;17112;48.636;10.152;2023-03-31T00:58:11;8.90;67.40
30304;DHT22;17112;48.636;10.152;2023-03-31T01:00:40;8.90;67.40
30304;DHT22;17112;48.636;10.152;2023-03-31T01:03:06;8.90;67.40
30304;DHT22;17112;48.636;10.152;2023-03-31T01:05:52;8.90;67.30
30304;DHT22;17112;48.636;10.152;2023-03-31T01:08:21;8.90;68.20
30304;DHT22;17112;48.636;10.152;2023-03-31T01:10:52;8.90;67.60
30304;DHT22;17112;48.636;10.152;2023-03-31T01:13:19;8.90;67.80
30304;DHT22;17112;48.636;10.152;2023-03-31T01:15:46;8.90;67.80
30304;DHT22;17112;48.636;10.152;2023-03-31T01:18:13;8.90;67.80
30304;DHT22;17112;48.636;10.152;2023-03-31T01:37:34;9.10;68.60
30304;DHT22;17112;48.636;10.152;2023-03-31T01:40:08;9.10;67.70
30304;DHT22;17112;48.636;10.152;2023-03-31T01:53:32;9.20;68.80
30304;DHT22;17112;48.636;10.152;2023-03-31T02:01:37;9.30;69.50
30304;DHT22;17112;48.636;10.152;2023-03-31T02:04:19;9.30;68.90
30304;DHT22;17112;48.636;10.152;2023-03-31T02:06:51;9.30;69.00
30304;DHT22;17112;48.636;10.152;2023-03-31T02:09:25;9.30;69.10
30304;DHT22;17112;48.636;10.152;2023-03-31T02:11:53;9.40;69.90
30304;DHT22;17112;48.636;10.152;2023-03-31T02:14:23;9.40;68.50
30304;DHT22;17112;48.636;10.152;2023-03-31T02:16:54;9.50;69.00
30304;DHT22;17112;48.636;10.152;2023-03-31T02:19:25;9.50;69.20
30304;DHT22;17112;48.636;10.152;2023-03-31T02:21:53;9.60;69.20
30304;DHT22;17112;48.636;10.152;2023-03-31T02:24:22;9.60;69.40
30304;DHT22;17112;48.636;10.152;2023-03-31T02:29:26;9.60;69.90
30304;DHT22;17112;48.636;10.152;2023-03-31T02:32:10;9.70;69.30
30304;DHT22;17112;48.636;10.152;2023-03-31T02:34:38;9.70;70.10
30304;DHT22;17112;48.636;10.152;2023-03-31T02:37:04;9.80;69.20
30304;DHT22;17112;48.636;10.152;2023-03-31T02:39:34;9.80;69.20
30304;DHT22;17112;48.636;10.152;2023-03-31T02:42:01;9.80;69.30
30304;DHT22;17112;48.636;10.152;2023-03-31T02:44:33;9.80;69.50
30304;DHT22;17112;48.636;10.152;2023-03-31T02:46:58;9.90;69.60
30304;DHT22;17112;48.636;10.152;2023-03-31T02:49:24;9.90;69.60
30304;DHT22;17112;48.636;10.152;2023-03-31T02:54:49;9.90;70.10
30304;DHT22;17112;48.636;10.152;2023-03-31T03:15:51;10.20;70.80
30304;DHT22;17112;48.636;10.152;2023-03-31T03:18:20;10.20;70.60
30304;DHT22;17112;48.636;10.152;2023-03-31T03:20:46;10.20;69.90
30304;DHT22;17112;48.636;10.152;2023-03-31T03:23:15;10.20;70.10
30304;DHT22;17112;48.636;10.152;2023-03-31T03:25:42;10.30;70.30
30304;DHT22;17112;48.636;10.152;2023-03-31T03:28:08;10.30;70.30
30304;DHT22;17112;48.636;10.152;2023-03-31T03:30:34;10.30;70.30
30304;DHT22;17112;48.636;10.152;2023-03-31T03:32:59;10.30;70.30
30304;DHT22;17112;48.636;10.152;2023-03-31T03:35:25;10.30;70.30
30304;DHT22;17112;48.636;10.152;2023-03-31T03:37:51;10.30;70.30
30304;DHT22;17112;48.636;10.152;2023-03-31T03:40:16;10.30;70.30
30304;DHT22;17112;48.636;10.152;2023-03-31T03:42:42;10.40;70.40
30304;DHT22;17112;48.636;10.152;2023-03-31T03:45:08;10.40;70.40
30304;DHT22;17112;48.636;10.152;2023-03-31T03:47:34;10.40;70.60
30304;DHT22;17112;48.636;10.152;2023-03-31T03:50:01;10.40;70.20
30304;DHT22;17112;48.636;10.152;2023-03-31T03:52:28;10.40;70.30
30304;DHT22;17112;48.636;10.152;2023-03-31T03:54:53;10.40;70.20
30304;DHT22;17112;48.636;10.152;2023-03-31T03:57:20;10.40;70.10
30304;DHT22;17112;48.636;10.152;2023-03-31T03:59:45;10.40;70.00
30304;DHT22;17112;48.636;10.152;2023-03-31T04:02:11;10.40;70.20
30304;DHT22;17112;48.636;10.152;2023-03-31T04:04:37;10.40;70.60
30304;DHT22;17112;48.636;10.152;2023-03-31T04:07:03;10.40;70.70
30304;DHT22;17112;48.636;10.152;2023-03-31T04:09:29;10.40;70.90
30304;DHT22;17112;48.636;10.152;2023-03-31T04:11:55;10.40;71.00
30304;DHT22;17112;48.636;10.152;2023-03-31T04:14:20;10.50;71.00
30304;DHT22;17112;48.636;10.152;2023-03-31T04:16:46;10.40;70.80
30304;DHT22;17112;48.636;10.152;2023-03-31T04:19:13;10.50;71.00
30304;DHT22;17112;48.636;10.152;2023-03-31T04:21:42;10.50;71.10
30304;DHT22;17112;48.636;10.152;2023-03-31T04:24:10;10.50;71.90
30304;DHT22;17112;48.636;10.152;2023-03-31T04:26:40;10.50;71.20
30304;DHT22;17112;48.636;10.152;2023-03-31T04:29:10;10.50;71.20
30304;DHT22;17112;48.636;10.152;2023-03-31T04:31:41;10.60;71.40
30304;DHT22;17112;48.636;10.152;2023-03-31T04:34:12;10.60;71.40
30304;DHT22;17112;48.636;10.152;2023-03-31T04:36:39;10.60;71.30
30304;DHT22;17112;48.636;10.152;2023-03-31T04:39:08;10.60;71.80
30304;DHT22;17112;48.636;10.152;2023-03-31T04:41:37;10.60;71.20
30304;DHT22;17112;48.636;10.152;2023-03-31T04:44:02;10.60;71.60
30304;DHT22;17112;48.636;10.152;2023-03-31T04:46:28;10.60;71.50
30304;DHT22;17112;48.636;10.152;2023-03-31T04:48:54;10.60;71.40
30304;DHT22;17112;48.636;10.152;2023-03-31T04:51:19;10.60;71.80
30304;DHT22;17112;48.636;10.152;2023-03-31T04:53:45;10.60;71.80
30304;DHT22;17112;48.636;10.152;2023-03-31T04:56:11;10.60;71.60
30304;DHT22;17112;48.636;10.152;2023-03-31T04:58:37;10.60;71.80
30304;DHT22;17112;48.636;10.152;2023-03-31T05:01:03;10.60;71.60
30304;DHT22;17112;48.636;10.152;2023-03-31T05:03:31;10.60;71.70
30304;DHT22;17112;48.636;10.152;2023-03-31T05:05:57;10.60;71.80
30304;DHT22;17112;48.636;10.152;2023-03-31T05:08:22;10.70;71.70
30304;DHT22;17112;48.636;10.152;2023-03-31T05:10:48;10.70;71.70
30304;DHT22;17112;48.636;10.152;2023-03-31T05:13:14;10.70;71.60
30304;DHT22;17112;48.636;10.152;2023-03-31T05:15:40;10.70;71.70
30304;DHT22;17112;48.636;10.152;2023-03-31T05:18:06;10.70;71.60
30304;DHT22;17112;48.636;10.152;2023-03-31T05:20:32;10.70;71.70
30304;DHT22;17112;48.636;10.152;2023-03-31T05:22:58;10.70;72.00
30304;DHT22;17112;48.636;10.152;2023-03-31T05:25:23;10.70;72.00
30304;DHT22;17112;48.636;10.152;2023-03-31T05:27:49;10.70;72.10
30304;DHT22;17112;48.636;10.152;2023-03-31T05:30:16;10.80;72.00
30304;DHT22;17112;48.636;10.152;2023-03-31T05:32:43;10.80;72.00
30304;DHT22;17112;48.636;10.152;2023-03-31T05:35:09;10.80;71.80
30304;DHT22;17112;48.636;10.152;2023-03-31T05:37:34;10.80;72.10
30304;DHT22;17112;48.636;10.152;2023-03-31T05:40:00;10.90;72.30
30304;DHT22;17112;48.636;10.152;2023-03-31T05:42:26;10.90;72.10
30304;DHT22;17112;48.636;10.152;2023-03-31T05:44:51;10.90;72.30
30304;DHT22;17112;48.636;10.152;2023-03-31T05:47:17;10.90;72.30
30304;DHT22;17112;48.636;10.152;2023-03-31T05:49:43;10.90;72.40
30304;DHT22;17112;48.636;10.152;2023-03-31T05:52:09;10.90;72.20
30304;DHT22;17112;48.636;10.152;2023-03-31T05:54:35;11.00;72.60
30304;DHT22;17112;48.636;10.152;2023-03-31T05:57:02;11.00;72.40
30304;DHT22;17112;48.636;10.152;2023-03-31T05:59:27;11.00;72.40
30304;DHT22;17112;48.636;10.152;2023-03-31T06:01:53;11.00;72.10
30304;DHT22;17112;48.636;10.152;2023-03-31T06:04:19;11.00;72.10
30304;DHT22;17112;48.636;10.152;2023-03-31T06:06:44;11.00;72.40
30304;DHT22;17112;48.636;10.152;2023-03-31T06:09:10;11.10;72.60
30304;DHT22;17112;48.636;10.152;2023-03-31T06:11:39;11.10;72.40
30304;DHT22;17112;48.636;10.152;2023-03-31T06:14:05;11.00;72.60
30304;DHT22;17112;48.636;10.152;2023-03-31T06:16:30;11.10;72.90
30304;DHT22;17112;48.636;10.152;2023-03-31T06:18:56;11.10;73.00
30304;DHT22;17112;48.636;10.152;2023-03-31T06:21:22;11.10;72.80
30304;DHT22;17112;48.636;10.152;2023-03-31T06:23:48;11.10;72.80
30304;DHT22;17112;48.636;10.152;2023-03-31T06:26:16;11.10;72.90
30304;DHT22;17112;48.636;10.152;2023-03-31T06:28:43;11.20;73.10
30304;DHT22;17112;48.636;10.152;2023-03-31T06:31:12;11.20;73.10
30304;DHT22;17112;48.636;10.152;2023-03-31T06:33:39;11.30;73.20
30304;DHT22;17112;48.636;10.152;2023-03-31T06:36:06;11.30;73.10
30304;DHT22;17112;48.636;10.152;2023-03-31T06:38:33;11.30;73.10
30304;DHT22;17112;48.636;10.152;2023-03-31T06:40:59;11.30;73.20
30304;DHT22;17112;48.636;10.152;2023-03-31T06:43:25;11.30;73.20
30304;DHT22;17112;48.636;10.152;2023-03-31T06:45:54;11.40;73.30
30304;DHT22;17112;48.636;10.152;2023-03-31T06:48:21;11.40;73.50
30304;DHT22;17112;48.636;10.152;2023-03-31T06:50:47;11.40;73.20
30304;DHT22;17112;48.636;10.152;2023-03-31T06:53:12;11.40;73.20
30304;DHT22;17112;48.636;10.152;2023-03-31T06:55:38;11.40;73.20
30304;DHT22;17112;48.636;10.152;2023-03-31T06:58:04;11.50;73.20
30304;DHT22;17112;48.636;10.152;2023-03-31T07:00:31;11.50;73.20
30304;DHT22;17112;48.636;10.152;2023-03-31T07:02:57;11.50;73.30
30304;DHT22;17112;48.636;10.152;2023-03-31T07:05:23;11.50;73.30
30304;DHT22;17112;48.636;10.152;2023-03-31T07:07:57;11.50;73.40
30304;DHT22;17112;48.636;10.152;2023-03-31T07:10:25;11.60;73.80
30304;DHT22;17112;48.636;10.152;2023-03-31T07:12:51;11.50;73.60
30304;DHT22;17112;48.636;10.152;2023-03-31T07:15:17;11.60;73.70
30304;DHT22;17112;48.636;10.152;2023-03-31T07:17:43;11.60;73.50
30304;DHT22;17112;48.636;10.152;2023-03-31T07:20:13;11.60;73.50
30304;DHT22;17112;48.636;10.152;2023-03-31T07:22:41;11.70;73.50
30304;DHT22;17112;48.636;10.152;2023-03-31T07:25:08;11.70;73.50
30304;DHT22;17112;48.636;10.152;2023-03-31T07:27:34;11.70;73.60
30304;DHT22;17112;48.636;10.152;2023-03-31T07:30:00;11.80;73.60
30304;DHT22;17112;48.636;10.152;2023-03-31T07:32:26;11.80;73.60
30304;DHT22;17112;48.636;10.152;2023-03-31T07:34:52;11.80;73.20
30304;DHT22;17112;48.636;10.152;2023-03-31T07:37:18;11.80;73.00
30304;DHT22;17112;48.636;10.152;2023-03-31T07:39:43;11.90;72.90
30304;DHT22;17112;48.636;10.152;2023-03-31T07:42:09;11.80;73.70
30304;DHT22;17112;48.636;10.152;2023-03-31T07:44:36;11.80;73.10
30304;DHT22;17112;48.636;10.152;2023-03-31T07:47:02;11.70;73.00
30304;DHT22;17112;48.636;10.152;2023-03-31T07:49:31;11.70;73.30
30304;DHT22;17112;48.636;10.152;2023-03-31T07:51:57;11.70;73.20
30304;DHT22;17112;48.636;10.152;2023-03-31T07:54:23;11.70;73.30
30304;DHT22;17112;48.636;10.152;2023-03-31T07:56:48;11.70;73.10
30304;DHT22;17112;48.636;10.152;2023-03-31T07:59:14;11.70;73.40
30304;DHT22;17112;48.636;10.152;2023-03-31T08:01:40;11.70;73.40
30304;DHT22;17112;48.636;10.152;2023-03-31T08:04:09;11.70;73.30
30304;DHT22;17112;48.636;10.152;2023-03-31T08:06:34;11.80;73.20
30304;DHT22;17112;48.636;10.152;2023-03-31T08:09:00;11.80;73.10
30304;DHT22;17112;48.636;10.152;2023-03-31T08:11:27;11.90;72.80
30304;DHT22;17112;48.636;10.152;2023-03-31T08:13:53;12.00;72.70
30304;DHT22;17112;48.636;10.152;2023-03-31T08:16:18;12.10;72.30
30304;DHT22;17112;48.636;10.152;2023-03-31T08:18:44;12.10;72.00
30304;DHT22;17112;48.636;10.152;2023-03-31T08:21:09;12.20;71.90
30304;DHT22;17112;48.636;10.152;2023-03-31T08:23:35;12.30;72.10
30304;DHT22;17112;48.636;10.152;2023-03-31T08:26:12;12.30;71.90
30304;DHT22;17112;48.636;10.152;2023-03-31T08:28:39;12.40;71.80
30304;DHT22;17112;48.636;10.152;2023-03-31T08:31:06;12.50;71.60
30304;DHT22;17112;48.636;10.152;2023-03-31T08:33:33;12.60;71.30
30304;DHT22;17112;48.636;10.152;2023-03-31T08:36:07;12.70;71.10
30304;DHT22;17112;48.636;10.152;2023-03-31T08:38:35;12.80;71.30
30304;DHT22;17112;48.636;10.152;2023-03-31T08:41:12;12.90;71.40
30304;DHT22;17112;48.636;10.152;2023-03-31T08:43:46;13.10;71.30
30304;DHT22;17112;48.636;10.152;2023-03-31T08:46:16;13.30;71.40
30304;DHT22;17112;48.636;10.152;2023-03-31T08:48:50;13.40;70.70
30304;DHT22;17112;48.636;10.152;2023-03-31T08:51:26;13.60;70.60
30304;DHT22;17112;48.636;10.152;2023-03-31T08:54:13;13.60;69.40
30304;DHT22;17112;48.636;10.152;2023-03-31T08:56:47;13.70;68.60
30304;DHT22;17112;48.636;10.152;2023-03-31T08:59:33;13.80;69.00
30304;DHT22;17112;48.636;10.152;2023-03-31T09:05:50;14.10;69.40
30304;DHT22;17112;48.636;10.152;2023-03-31T09:08:44;14.30;69.70
30304;DHT22;17112;48.636;10.152;2023-03-31T09:11:31;14.60;68.80
30304;DHT22;17112;48.636;10.152;2023-03-31T09:14:25;14.80;68.80
30304;DHT22;17112;48.636;10.152;2023-03-31T09:17:12;15.00;67.90
30304;DHT22;17112;48.636;10.152;2023-03-31T09:19:56;15.30;67.00
30304;DHT22;17112;48.636;10.152;2023-03-31T09:22:33;15.50;66.90
30304;DHT22;17112;48.636;10.152;2023-03-31T09:25:14;15.60;65.00
30304;DHT22;17112;48.636;10.152;2023-03-31T09:27:42;15.70;63.80
30304;DHT22;17112;48.636;10.152;2023-03-31T09:30:13;15.80;63.80
30304;DHT22;17112;48.636;10.152;2023-03-31T09:32:40;16.00;62.10
30304;DHT22;17112;48.636;10.152;2023-03-31T09:37:41;16.20;61.90
30304;DHT22;17112;48.636;10.152;2023-03-31T09:40:15;16.40;59.50
30304;DHT22;17112;48.636;10.152;2023-03-31T09:42:41;16.40;58.90
30304;DHT22;17112;48.636;10.152;2023-03-31T09:45:15;16.50;59.20
30304;DHT22;17112;48.636;10.152;2023-03-31T09:47:44;16.70;58.30
30304;DHT22;17112;48.636;10.152;2023-03-31T09:50:10;16.80;56.40
30304;DHT22;17112;48.636;10.152;2023-03-31T09:52:40;16.90;55.80
30304;DHT22;17112;48.636;10.152;2023-03-31T09:55:49;16.90;53.70
30304;DHT22;17112;48.636;10.152;2023-03-31T09:58:16;17.00;54.50
30304;DHT22;17112;48.636;10.152;2023-03-31T10:01:04;17.10;53.40
30304;DHT22;17112;48.636;10.152;2023-03-31T10:03:31;17.10;52.60
30304;DHT22;17112;48.636;10.152;2023-03-31T10:06:08;17.10;52.70
30304;DHT22;17112;48.636;10.152;2023-03-31T10:08:53;17.10;52.70
30304;DHT22;17112;48.636;10.152;2023-03-31T10:11:21;17.10;52.00
30304;DHT22;17112;48.636;10.152;2023-03-31T10:14:04;17.20;54.40
30304;DHT22;17112;48.636;10.152;2023-03-31T10:16:34;17.30;54.00
30304;DHT22;17112;48.636;10.152;2023-03-31T10:19:25;17.50;54.30
30304;DHT22;17112;48.636;10.152;2023-03-31T10:22:03;17.60;52.80
30304;DHT22;17112;48.636;10.152;2023-03-31T10:24:40;17.60;52.40
30304;DHT22;17112;48.636;10.152;2023-03-31T10:27:24;17.60;51.10
30304;DHT22;17112;48.636;10.152;2023-03-31T10:30:00;17.70;52.30
30304;DHT22;17112;48.636;10.152;2023-03-31T10:32:29;17.70;52.50
30304;DHT22;17112;48.636;10.152;2023-03-31T10:34:56;17.70;52.00
30304;DHT22;17112;48.636;10.152;2023-03-31T10:37:25;17.70;51.80
30304;DHT22;17112;48.636;10.152;2023-03-31T10:40:21;17.70;52.10
30304;DHT22;17112;48.636;10.152;2023-03-31T10:43:17;17.70;51.30
30304;DHT22;17112;48.636;10.152;2023-03-31T10:45:50;17.80;51.40
30304;DHT22;17112;48.636;10.152;2023-03-31T10:48:26;17.70;49.80
30304;DHT22;17112;48.636;10.152;2023-03-31T10:50:53;17.70;51.00
30304;DHT22;17112;48.636;10.152;2023-03-31T10:53:19;17.60;50.30
30304;DHT22;17112;48.636;10.152;2023-03-31T11:09:47;17.60;50.80
30304;DHT22;17112;48.636;10.152;2023-03-31T11:15:39;17.90;50.10
30304;DHT22;17112;48.636;10.152;2023-03-31T11:20:49;18.30;49.60
30304;DHT22;17112;48.636;10.152;2023-03-31T11:26:05;18.50;48.30
30304;DHT22;17112;48.636;10.152;2023-03-31T11:31:25;18.50;48.20
30304;DHT22;17112;48.636;10.152;2023-03-31T11:42:12;18.70;47.80
30304;DHT22;17112;48.636;10.152;2023-03-31T11:44:43;18.80;47.40
30304;DHT22;17112;48.636;10.152;2023-03-31T11:47:23;18.80;47.50
30304;DHT22;17112;48.636;10.152;2023-03-31T11:50:09;18.80;46.70
30304;DHT22;17112;48.636;10.152;2023-03-31T11:52:43;18.80;45.70
30304;DHT22;17112;48.636;10.152;2023-03-31T11:55:19;18.80;46.10
30304;DHT22;17112;48.636;10.152;2023-03-31T12:00:25;18.80;46.60
30304;DHT22;17112;48.636;10.152;2023-03-31T12:05:25;18.90;46.10
30304;DHT22;17112;48.636;10.152;2023-03-31T12:08:27;19.00;45.40
30304;DHT22;17112;48.636;10.152;2023-03-31T12:11:01;19.00;43.10
30304;DHT22;17112;48.636;10.152;2023-03-31T12:13:50;18.90;45.40
30304;DHT22;17112;48.636;10.152;2023-03-31T12:19:01;17.90;46.40
30304;DHT22;17112;48.636;10.152;2023-03-31T12:21:30;17.20;47.20
30304;DHT22;17112;48.636;10.152;2023-03-31T12:23:57;16.60;49.00
30304;DHT22;17112;48.636;10.152;2023-03-31T12:31:47;15.40;51.50
30304;DHT22;17112;48.636;10.152;2023-03-31T12:34:16;15.30;52.30
30304;DHT22;17112;48.636;10.152;2023-03-31T12:37:38;15.10;52.50
30304;DHT22;17112;48.636;10.152;2023-03-31T12:55:48;14.80;52.60
30304;DHT22;17112;48.636;10.152;2023-03-31T13:09:02;14.90;51.80
30304;DHT22;17112;48.636;10.152;2023-03-31T13:16:30;15.20;51.90
30304;DHT22;17112;48.636;10.152;2023-03-31T13:18:56;15.40;51.00
30304;DHT22;17112;48.636;10.152;2023-03-31T13:21:23;15.60;50.80
30304;DHT22;17112;48.636;10.152;2023-03-31T13:23:49;15.80;51.30
30304;DHT22;17112;48.636;10.152;2023-03-31T13:26:35;15.90;50.60
30304;DHT22;17112;48.636;10.152;2023-03-31T13:34:34;16.40;49.20
30304;DHT22;17112;48.636;10.152;2023-03-31T13:50:36;17.40;48.20
30304;DHT22;17112;48.636;10.152;2023-03-31T14:07:16;17.60;44.90
30304;DHT22;17112;48.636;10.152;2023-03-31T14:09:44;17.50;45.90
30304;DHT22;17112;48.636;10.152;2023-03-31T14:12:21;17.40;46.40
30304;DHT22;17112;48.636;10.152;2023-03-31T14:14:47;17.40;46.70
30304;DHT22;17112;48.636;10.152;2023-03-31T14:17:16;17.40;47.00
30304;DHT22;17112;48.636;10.152;2023-03-31T14:25:57;17.20;47.90
30304;DHT22;17112;48.636;10.152;2023-03-31T14:37:32;17.10;46.50
30304;DHT22;17112;48.636;10.152;2023-03-31T14:39:34;17.00;46.90
30304;DHT22;17112;48.636;10.152;2023-03-31T14:42:09;16.90;48.00
30304;DHT22;17112;48.636;10.152;2023-03-31T14:44:36;16.70;49.60
30304;DHT22;17112;48.636;10.152;2023-03-31T14:47:02;16.40;50.20
30304;DHT22;17112;48.636;10.152;2023-03-31T14:49:37;16.20;50.80
30304;DHT22;17112;48.636;10.152;2023-03-31T14:52:32;15.90;50.80
30304;DHT22;17112;48.636;10.152;2023-03-31T14:55:00;15.60;51.60
30304;DHT22;17112;48.636;10.152;2023-03-31T14:57:36;15.30;51.70
30304;DHT22;17112;48.636;10.152;2023-03-31T15:00:07;15.00;52.00
30304;DHT22;17112;48.636;10.152;2023-03-31T15:02:36;14.80;52.60
30304;DHT22;17112;48.636;10.152;2023-03-31T15:05:08;14.70;53.20
30304;DHT22;17112;48.636;10.152;2023-03-31T15:07:35;14.70;53.60
30304;DHT22;17112;48.636;10.152;2023-03-31T15:10:02;14.60;53.90
30304;DHT22;17112;48.636;10.152;2023-03-31T15:12:29;14.70;53.80
30304;DHT22;17112;48.636;10.152;2023-03-31T15:15:03;14.70;53.50
30304;DHT22;17112;48.636;10.152;2023-03-31T15:17:36;14.70;53.50
30304;DHT22;17112;48.636;10.152;2023-03-31T15:20:30;14.60;53.60
30304;DHT22;17112;48.636;10.152;2023-03-31T15:22:57;14.60;53.70
30304;DHT22;17112;48.636;10.152;2023-03-31T15:25:44;14.60;53.90
30304;DHT22;17112;48.636;10.152;2023-03-31T15:28:13;14.60;54.70
30304;DHT22;17112;48.636;10.152;2023-03-31T15:30:41;14.60;54.60
30304;DHT22;17112;48.636;10.152;2023-03-31T15:33:07;14.60;54.50
30304;DHT22;17112;48.636;10.152;2023-03-31T15:35:39;14.60;54.70
30304;DHT22;17112;48.636;10.152;2023-03-31T15:38:05;14.60;54.50
30304;DHT22;17112;48.636;10.152;2023-03-31T15:40:36;14.60;54.70
30304;DHT22;17112;48.636;10.152;2023-03-31T15:45:51;14.70;54.70
30304;DHT22;17112;48.636;10.152;2023-03-31T15:50:48;14.90;54.00
30304;DHT22;17112;48.636;10.152;2023-03-31T15:53:24;14.90;53.90
30304;DHT22;17112;48.636;10.152;2023-03-31T15:55:53;14.90;53.40
30304;DHT22;17112;48.636;10.152;2023-03-31T15:58:23;14.90;53.40
30304;DHT22;17112;48.636;10.152;2023-03-31T16:00:53;14.90;53.20
30304;DHT22;17112;48.636;10.152;2023-03-31T16:03:34;14.90;53.10
30304;DHT22;17112;48.636;10.152;2023-03-31T16:06:14;14.90;53.30
30304;DHT22;17112;48.636;10.152;2023-03-31T16:08:43;14.90;53.00
30304;DHT22;17112;48.636;10.152;2023-03-31T16:11:17;14.90;52.90
30304;DHT22;17112;48.636;10.152;2023-03-31T16:13:49;14.90;52.60
30304;DHT22;17112;48.636;10.152;2023-03-31T16:16:18;14.90;52.80
30304;DHT22;17112;48.636;10.152;2023-03-31T16:18:53;14.90;52.30
30304;DHT22;17112;48.636;10.152;2023-03-31T16:21:28;14.90;52.50
30304;DHT22;17112;48.636;10.152;2023-03-31T16:23:55;14.90;52.50
30304;DHT22;17112;48.636;10.152;2023-03-31T16:26:22;14.90;52.00
30304;DHT22;17112;48.636;10.152;2023-03-31T16:28:50;14.80;52.30
30304;DHT22;17112;48.636;10.152;2023-03-31T16:31:38;14.70;52.40
30304;DHT22;17112;48.636;10.152;2023-03-31T16:34:09;14.60;52.40
30304;DHT22;17112;48.636;10.152;2023-03-31T16:36:36;14.50;52.60
30304;DHT22;17112;48.636;10.152;2023-03-31T16:39:02;14.50;52.80
30304;DHT22;17112;48.636;10.152;2023-03-31T16:41:31;14.40;53.00
30304;DHT22;17112;48.636;10.152;2023-03-31T16:43:57;14.40;53.10
30304;DHT22;17112;48.636;10.152;2023-03-31T16:46:23;14.30;53.40
30304;DHT22;17112;48.636;10.152;2023-03-31T16:48:50;14.30;53.20
30304;DHT22;17112;48.636;10.152;2023-03-31T16:51:16;14.20;53.20
30304;DHT22;17112;48.636;10.152;2023-03-31T16:53:43;14.20;53.40
30304;DHT22;17112;48.636;10.152;2023-03-31T16:56:09;14.10;53.30
30304;DHT22;17112;48.636;10.152;2023-03-31T16:58:37;14.10;53.40
30304;DHT22;17112;48.636;10.152;2023-03-31T17:01:04;14.10;54.20
30304;DHT22;17112;48.636;10.152;2023-03-31T17:03:31;14.00;53.60
30304;DHT22;17112;48.636;10.152;2023-03-31T17:06:02;14.00;53.70
30304;DHT22;17112;48.636;10.152;2023-03-31T17:08:28;14.00;53.90
30304;DHT22;17112;48.636;10.152;2023-03-31T17:11:23;14.00;53.80
30304;DHT22;17112;48.636;10.152;2023-03-31T17:13:48;14.00;53.80
30304;DHT22;17112;48.636;10.152;2023-03-31T17:16:14;14.00;53.70
30304;DHT22;17112;48.636;10.152;2023-03-31T17:18:42;14.00;53.60
30304;DHT22;17112;48.636;10.152;2023-03-31T17:21:10;13.90;53.50
30304;DHT22;17112;48.636;10.152;2023-03-31T17:23:37;13.90;53.70
30304;DHT22;17112;48.636;10.152;2023-03-31T17:26:04;13.80;53.70
30304;DHT22;17112;48.636;10.152;2023-03-31T17:28:31;13.80;53.80
30304;DHT22;17112;48.636;10.152;2023-03-31T17:30:57;13.70;53.80
30304;DHT22;17112;48.636;10.152;2023-03-31T17:33:23;13.70;53.90
30304;DHT22;17112;48.636;10.152;2023-03-31T17:35:49;13.70;54.20
30304;DHT22;17112;48.636;10.152;2023-03-31T17:38:15;13.70;54.30
30304;DHT22;17112;48.636;10.152;2023-03-31T17:40:43;13.70;54.40
30304;DHT22;17112;48.636;10.152;2023-03-31T17:43:10;13.60;54.50
30304;DHT22;17112;48.636;10.152;2023-03-31T17:45:36;13.60;54.70
30304;DHT22;17112;48.636;10.152;2023-03-31T17:48:02;13.60;54.70
30304;DHT22;17112;48.636;10.152;2023-03-31T17:50:30;13.50;54.60
30304;DHT22;17112;48.636;10.152;2023-03-31T17:52:57;13.50;54.70
30304;DHT22;17112;48.636;10.152;2023-03-31T17:55:23;13.50;54.60
30304;DHT22;17112;48.636;10.152;2023-03-31T17:57:49;13.50;54.60
30304;DHT22;17112;48.636;10.152;2023-03-31T18:00:15;13.40;54.70
30304;DHT22;17112;48.636;10.152;2023-03-31T18:02:41;13.40;54.70
30304;DHT22;17112;48.636;10.152;2023-03-31T18:05:08;13.30;54.70
30304;DHT22;17112;48.636;10.152;2023-03-31T18:07:34;13.30;54.60
30304;DHT22;17112;48.636;10.152;2023-03-31T18:10:00;13.30;54.70
30304;DHT22;17112;48.636;10.152;2023-03-31T18:12:26;13.20;54.70
30304;DHT22;17112;48.636;10.152;2023-03-31T18:14:53;13.20;54.90
30304;DHT22;17112;48.636;10.152;2023-03-31T18:17:20;13.10;54.90
30304;DHT22;17112;48.636;10.152;2023-03-31T18:19:46;13.10;55.00
30304;DHT22;17112;48.636;10.152;2023-03-31T18:22:11;13.00;55.20
30304;DHT22;17112;48.636;10.152;2023-03-31T18:24:37;13.00;55.20
30304;DHT22;17112;48.636;10.152;2023-03-31T18:27:05;12.90;55.30
30304;DHT22;17112;48.636;10.152;2023-03-31T18:29:31;12.90;55.50
30304;DHT22;17112;48.636;10.152;2023-03-31T18:31:57;12.80;55.60
30304;DHT22;17112;48.636;10.152;2023-03-31T18:34:23;12.80;55.80
30304;DHT22;17112;48.636;10.152;2023-03-31T18:36:49;12.80;55.90
30304;DHT22;17112;48.636;10.152;2023-03-31T18:39:15;12.80;56.00
30304;DHT22;17112;48.636;10.152;2023-03-31T18:41:44;12.80;56.10
30304;DHT22;17112;48.636;10.152;2023-03-31T18:44:11;12.70;56.30
30304;DHT22;17112;48.636;10.152;2023-03-31T18:46:40;12.70;56.30
30304;DHT22;17112;48.636;10.152;2023-03-31T18:49:07;12.70;56.40
30304;DHT22;17112;48.636;10.152;2023-03-31T18:51:32;12.70;56.60